Time;durP1;ratioP1;P1;durP2;ratioP2;P2;SDS_P1;SDS_P2;PMS_P1;PMS_P2;Temp;Humidity;BMP_temperature;BMP_pressure;BME280_temperature;BME280_humidity;BME280_pressure;Samples;Min_cycle;Max_cycle;Signal;HPM_P1;HPM_P2
2023/03/01 00:01:15;;;;;;;0.93;0.40;;;10.60;53.60;;;;;;5060927;28;20036;-82
2023/03/01 00:03:41;;;;;;;1.30;0.40;;;10.60;53.60;;;;;;5062581;28;20411;-83
2023/03/01 00:06:07;;;;;;;1.25;0.40;;;10.60;53.70;;;;;;5063097;28;20060;-84
2023/03/01 00:08:34;;;;;;;0.73;0.30;;;10.60;53.90;;;;;;5060651;28;20043;-84
2023/03/01 00:11:02;;;;;;;0.85;0.40;;;10.60;53.80;;;;;;5062117;28;20185;-83
2023/03/01 00:13:28;;;;;;;0.90;0.30;;;10.60;53.90;;;;;;5062983;28;20033;-83
2023/03/01 00:15:54;;;;;;;1.17;0.38;;;10.60;53.90;;;;;;5062667;28;20617;-83
2023/03/01 00:18:20;;;;;;;1.75;0.40;;;10.60;53.90;;;;;;5061420;28;20115;-85
2023/03/01 00:20:55;;;;;;;0.85;0.40;;;10.50;53.90;;;;;;5062428;28;20060;-82
2023/03/01 00:23:23;;;;;;;0.77;0.45;;;10.60;53.90;;;;;;5048595;28;20500;-85
2023/03/01 00:25:49;;;;;;;0.82;0.30;;;10.50;53.80;;;;;;5060629;28;20056;-85
2023/03/01 00:28:15;;;;;;;1.25;0.60;;;10.50;53.70;;;;;;5063181;28;20033;-82
2023/03/01 00:30:41;;;;;;;1.40;0.40;;;10.50;53.50;;;;;;5062520;28;20387;-83
2023/03/01 00:33:07;;;;;;;0.43;0.22;;;10.50;53.50;;;;;;5063207;28;20131;-82
2023/03/01 00:35:34;;;;;;;2.35;1.02;;;10.50;53.50;;;;;;5061444;28;20036;-80
2023/03/01 00:38:00;;;;;;;0.45;0.43;;;10.50;53.50;;;;;;5046663;28;20056;-83
2023/03/01 00:40:30;;;;;;;0.52;0.40;;;10.50;53.60;;;;;;5059673;28;20422;-84
2023/03/01 00:42:56;;;;;;;0.55;0.30;;;10.50;53.60;;;;;;5044469;28;20577;-83
2023/03/01 00:45:22;;;;;;;1.15;0.35;;;10.50;53.60;;;;;;5029376;28;20419;-84
2023/03/01 00:47:49;;;;;;;0.43;0.43;;;10.50;53.50;;;;;;5035173;28;20098;-86
2023/03/01 00:50:15;;;;;;;1.45;0.43;;;10.50;53.60;;;;;;5063901;28;20041;-83
2023/03/01 00:52:41;;;;;;;1.58;0.30;;;10.50;53.70;;;;;;5045980;28;20037;-81
2023/03/01 00:55:08;;;;;;;1.38;0.30;;;10.50;53.50;;;;;;5047630;28;20450;-80
2023/03/01 00:57:34;;;;;;;0.80;0.35;;;10.50;53.50;;;;;;5060961;28;20037;-81
2023/03/01 01:00:00;;;;;;;0.90;0.20;;;10.40;53.40;;;;;;5047849;28;20094;-80
2023/03/01 01:02:26;;;;;;;0.95;0.40;;;10.40;53.40;;;;;;5060568;28;20017;-80
2023/03/01 01:04:52;;;;;;;1.40;0.40;;;10.40;53.20;;;;;;5042953;28;20122;-80
2023/03/01 01:07:19;;;;;;;1.10;0.40;;;10.40;53.20;;;;;;5059758;28;20064;-82
2023/03/01 01:09:46;;;;;;;1.45;0.40;;;10.40;53.10;;;;;;5042381;28;20036;-81
2023/03/01 01:12:12;;;;;;;1.17;0.40;;;10.40;53.10;;;;;;5060307;28;20033;-78
2023/03/01 01:14:38;;;;;;;1.33;0.40;;;10.40;53.10;;;;;;5046225;28;20040;-83
2023/03/01 01:17:04;;;;;;;1.45;0.30;;;10.40;53.10;;;;;;5043747;28;20120;-80
2023/03/01 01:19:31;;;;;;;1.63;0.50;;;10.40;53.10;;;;;;5060903;28;20403;-83
2023/03/01 01:21:56;;;;;;;1.13;0.43;;;10.40;53.10;;;;;;5062108;28;20090;-83
2023/03/01 01:24:23;;;;;;;2.70;0.40;;;10.40;53.10;;;;;;5047420;28;20036;-83
2023/03/01 01:26:49;;;;;;;0.98;0.50;;;10.40;53.20;;;;;;5044829;28;20036;-83
2023/03/01 01:29:15;;;;;;;0.50;0.32;;;10.40;53.30;;;;;;5048055;28;20502;-85
2023/03/01 01:31:42;;;;;;;2.45;0.32;;;10.40;53.40;;;;;;5045497;28;20032;-83
2023/03/01 01:34:17;;;;;;;3.25;0.22;;;10.30;53.30;;;;;;5058942;28;20582;-84
2023/03/01 01:36:44;;;;;;;1.05;0.30;;;10.30;53.20;;;;;;5044780;28;20070;-83
2023/03/01 01:39:12;;;;;;;0.57;0.30;;;10.30;53.10;;;;;;5044140;28;20119;-84
2023/03/01 01:41:42;;;;;;;0.90;0.40;;;10.30;53.00;;;;;;5026683;28;20052;-78
2023/03/01 01:44:20;;;;;;;1.05;0.47;;;10.30;53.10;;;;;;5059627;28;20032;-82
2023/03/01 01:47:04;;;;;;;1.23;0.30;;;10.30;53.10;;;;;;5060411;28;20045;-83
2023/03/01 01:49:53;;;;;;;1.50;0.30;;;10.40;53.00;;;;;;5060037;28;20036;-83
2023/03/01 01:52:38;;;;;;;2.28;0.30;;;10.30;52.80;;;;;;5044683;28;20481;-83
2023/03/01 01:55:10;;;;;;;0.82;0.40;;;10.30;52.90;;;;;;5041369;28;20594;-83
2023/03/01 01:57:44;;;;;;;1.95;0.30;;;10.30;52.80;;;;;;5042010;28;20064;-81
2023/03/01 02:00:22;;;;;;;2.05;0.28;;;10.30;52.80;;;;;;5061248;28;20422;-80
2023/03/01 02:02:51;;;;;;;0.90;0.30;;;10.30;52.70;;;;;;5060897;28;20064;-82
2023/03/01 02:05:23;;;;;;;0.43;0.30;;;10.30;52.90;;;;;;5041348;28;20029;-82
2023/03/01 02:07:50;;;;;;;0.32;0.20;;;10.30;53.10;;;;;;5047401;28;20033;-84
2023/03/01 02:10:20;;;;;;;1.65;0.30;;;10.30;53.10;;;;;;5046968;28;20040;-85
2023/03/01 02:12:47;;;;;;;0.75;0.40;;;10.30;53.10;;;;;;5058407;28;20407;-82
2023/03/01 02:15:13;;;;;;;0.40;0.35;;;10.30;53.10;;;;;;5060127;28;20037;-84
2023/03/01 02:17:39;;;;;;;1.15;0.38;;;10.30;53.10;;;;;;5026103;28;20048;-83
2023/03/01 02:20:20;;;;;;;2.13;0.30;;;10.30;53.10;;;;;;5026271;28;20044;-83
2023/03/01 02:22:46;;;;;;;0.52;0.22;;;10.30;53.00;;;;;;5060491;28;20044;-85
2023/03/01 02:25:37;;;;;;;1.70;0.38;;;10.30;52.90;;;;;;5046364;28;20108;-78
2023/03/01 02:28:15;;;;;;;0.82;0.20;;;10.20;52.90;;;;;;5060668;28;20499;-83
2023/03/01 02:33:38;;;;;;;0.73;0.22;;;10.30;53.10;;;;;;5042922;28;20041;-80
2023/03/01 02:36:09;;;;;;;4.13;0.70;;;10.30;53.10;;;;;;5043062;28;20069;-81
2023/03/01 02:38:35;;;;;;;0.63;0.20;;;10.20;53.20;;;;;;5057830;28;20028;-84
2023/03/01 02:41:05;;;;;;;1.92;0.40;;;10.20;53.20;;;;;;5043755;28;20717;-82
2023/03/01 02:43:33;;;;;;;2.25;0.30;;;10.20;53.10;;;;;;5042118;28;20171;-77
2023/03/01 02:46:07;;;;;;;0.75;0.22;;;10.30;53.20;;;;;;5057955;28;20050;-83
2023/03/01 02:48:48;;;;;;;0.93;0.30;;;10.30;53.20;;;;;;5057915;28;20343;-81
2023/03/01 02:51:32;;;;;;;0.80;0.30;;;10.20;53.30;;;;;;5059031;28;20037;-83
2023/03/01 02:54:25;;;;;;;0.70;0.30;;;10.30;53.50;;;;;;5057184;28;20388;-81
2023/03/01 02:56:52;;;;;;;0.98;0.25;;;10.30;53.80;;;;;;5058788;28;20411;-85
2023/03/01 02:59:26;;;;;;;1.55;0.30;;;10.30;53.90;;;;;;5042008;28;20064;-82
2023/03/01 03:01:52;;;;;;;0.28;0.13;;;10.30;53.90;;;;;;5044723;28;20036;-78
2023/03/01 03:04:20;;;;;;;1.98;0.40;;;10.20;53.60;;;;;;5048346;28;20087;-81
2023/03/01 03:06:50;;;;;;;1.73;0.30;;;10.30;53.50;;;;;;5045601;28;20051;-82
2023/03/01 03:09:18;;;;;;;0.70;0.50;;;10.30;53.40;;;;;;5039061;28;20056;-83
2023/03/01 03:11:45;;;;;;;0.30;0.25;;;10.20;53.20;;;;;;5022931;28;20033;-82
2023/03/01 03:14:14;;;;;;;0.55;0.30;;;10.30;53.20;;;;;;5040575;28;20041;-84
2023/03/01 03:16:50;;;;;;;0.93;0.38;;;10.20;53.00;;;;;;5039140;28;20025;-83
2023/03/01 03:19:17;;;;;;;1.30;0.40;;;10.30;53.20;;;;;;5038141;28;20127;-79
2023/03/01 03:21:43;;;;;;;2.83;0.35;;;10.20;53.10;;;;;;5040115;28;20033;-82
2023/03/01 03:24:09;;;;;;;1.98;0.30;;;10.20;53.10;;;;;;5038157;28;20040;-83
2023/03/01 03:26:36;;;;;;;1.00;0.30;;;10.30;53.10;;;;;;5038944;28;20033;-84
2023/03/01 03:29:02;;;;;;;0.68;0.40;;;10.20;53.00;;;;;;5037986;28;20073;-82
2023/03/01 03:31:28;;;;;;;1.30;0.45;;;10.20;52.90;;;;;;5037933;28;20033;-86
2023/03/01 03:33:54;;;;;;;1.15;0.35;;;10.20;52.90;;;;;;5039211;28;20029;-84
2023/03/01 03:36:23;;;;;;;3.47;0.65;;;10.20;53.10;;;;;;5055241;28;20086;-83
2023/03/01 03:38:49;;;;;;;1.35;0.30;;;10.20;52.80;;;;;;5040300;28;20045;-82
2023/03/01 03:41:16;;;;;;;1.08;0.40;;;10.20;53.10;;;;;;5038259;28;20084;-85
2023/03/01 03:43:43;;;;;;;4.50;0.63;;;10.20;53.10;;;;;;5036312;28;20071;-80
2023/03/01 03:46:11;;;;;;;1.90;0.52;;;10.20;53.10;;;;;;5039847;28;20048;-83
2023/03/01 03:48:40;;;;;;;0.80;0.20;;;10.20;52.90;;;;;;5041017;28;20086;-84
2023/03/01 03:51:06;;;;;;;0.75;0.30;;;10.20;52.80;;;;;;5039108;28;20291;-86
2023/03/01 03:53:33;;;;;;;0.95;0.45;;;10.20;52.90;;;;;;5039257;28;20069;-81
2023/03/01 03:55:59;;;;;;;0.30;0.20;;;10.20;52.90;;;;;;5020489;28;20472;-86
2023/03/01 03:58:26;;;;;;;0.57;0.30;;;10.20;53.10;;;;;;5038229;28;20054;-83
2023/03/01 04:00:57;;;;;;;0.85;0.30;;;10.20;53.10;;;;;;5040990;28;21783;-81
2023/03/01 04:03:25;;;;;;;1.95;0.57;;;10.20;53.20;;;;;;5040388;28;20036;-78
2023/03/01 04:05:52;;;;;;;1.23;0.52;;;10.20;53.30;;;;;;5039071;28;20480;-78
2023/03/01 04:08:20;;;;;;;0.40;0.30;;;10.20;53.20;;;;;;5038998;28;20025;-78
2023/03/01 04:10:49;;;;;;;1.00;0.50;;;10.20;53.10;;;;;;5054565;28;20049;-78
2023/03/01 04:13:19;;;;;;;1.02;0.40;;;10.20;53.10;;;;;;5058402;28;20036;-78
2023/03/01 04:15:50;;;;;;;0.60;0.30;;;10.20;52.90;;;;;;5062386;28;20575;-78
2023/03/01 04:18:18;;;;;;;1.63;0.50;;;10.20;52.90;;;;;;5059358;28;20577;-76
2023/03/01 04:20:45;;;;;;;0.90;0.30;;;10.20;53.00;;;;;;5062041;28;20040;-77
2023/03/01 04:23:15;;;;;;;1.58;0.50;;;10.20;53.00;;;;;;5043678;28;20064;-78
2023/03/01 04:25:54;;;;;;;1.02;0.60;;;10.20;53.00;;;;;;5061282;28;20076;-77
2023/03/01 04:28:36;;;;;;;0.38;0.22;;;10.20;52.90;;;;;;5063125;28;20063;-78
2023/03/01 04:31:12;;;;;;;1.30;0.32;;;10.20;52.80;;;;;;5062391;28;20151;-80
2023/03/01 04:33:40;;;;;;;0.85;0.35;;;10.20;52.80;;;;;;5031527;28;20535;-79
2023/03/01 04:36:08;;;;;;;0.60;0.20;;;10.20;52.80;;;;;;5062272;28;20060;-78
2023/03/01 04:38:37;;;;;;;0.98;0.30;;;10.20;53.00;;;;;;5060857;28;20475;-77
2023/03/01 04:41:08;;;;;;;1.48;0.65;;;10.20;53.00;;;;;;5062442;28;20048;-79
2023/03/01 04:43:34;;;;;;;1.35;0.63;;;10.20;52.90;;;;;;5029158;28;20119;-77
2023/03/01 04:46:07;;;;;;;1.15;0.52;;;10.20;53.00;;;;;;5060857;28;20036;-76
2023/03/01 04:48:33;;;;;;;1.50;0.50;;;10.20;53.00;;;;;;5060963;28;20090;-77
2023/03/01 04:51:00;;;;;;;1.15;0.40;;;10.20;53.10;;;;;;5061374;28;20040;-77
2023/03/01 04:53:26;;;;;;;1.00;0.38;;;10.20;53.00;;;;;;5061525;28;20565;-77
2023/03/01 04:55:55;;;;;;;2.38;0.40;;;10.20;53.10;;;;;;5048437;28;20028;-76
2023/03/01 04:58:25;;;;;;;3.53;0.40;;;10.20;53.30;;;;;;5063305;28;20033;-75
2023/03/01 05:00:51;;;;;;;2.53;0.60;;;10.20;53.70;;;;;;5042117;28;20533;-77
2023/03/01 05:03:18;;;;;;;1.40;0.40;;;10.20;53.80;;;;;;5062080;28;20037;-76
2023/03/01 05:05:46;;;;;;;1.38;0.43;;;10.30;53.90;;;;;;5060547;28;20131;-77
2023/03/01 05:08:17;;;;;;;2.70;0.40;;;10.30;53.90;;;;;;5046440;28;20410;-77
2023/03/01 05:10:54;;;;;;;2.55;0.60;;;10.30;53.90;;;;;;5062041;28;20047;-77
2023/03/01 05:13:21;;;;;;;1.70;0.60;;;10.30;54.10;;;;;;5042103;28;20037;-79
2023/03/01 05:15:54;;;;;;;2.42;0.70;;;10.30;54.10;;;;;;5059634;28;20078;-76
2023/03/01 05:18:20;;;;;;;2.08;0.55;;;10.30;54.20;;;;;;5064120;28;20093;-76
2023/03/01 05:20:47;;;;;;;1.67;0.77;;;10.30;54.30;;;;;;5031479;28;20040;-76
2023/03/01 05:23:13;;;;;;;1.35;0.50;;;10.30;54.40;;;;;;5061551;28;20124;-76
2023/03/01 05:25:39;;;;;;;1.65;0.60;;;10.30;54.30;;;;;;5058450;28;20036;-77
2023/03/01 05:28:10;;;;;;;3.13;0.52;;;10.30;54.10;;;;;;5059406;28;20036;-76
2023/03/01 05:30:38;;;;;;;2.15;0.57;;;10.40;54.10;;;;;;5061784;28;20145;-76
2023/03/01 05:33:10;;;;;;;1.75;0.60;;;10.50;54.10;;;;;;5062553;28;20102;-76
2023/03/01 05:35:36;;;;;;;2.38;0.60;;;10.60;53.70;;;;;;5041421;28;20036;-77
2023/03/01 05:38:02;;;;;;;0.77;0.50;;;10.70;53.50;;;;;;5062647;28;20029;-75
2023/03/01 05:40:29;;;;;;;1.83;0.50;;;10.80;53.30;;;;;;5059941;28;20031;-75
2023/03/01 05:42:56;;;;;;;4.13;0.65;;;11.00;53.00;;;;;;5059449;28;20036;-75
2023/03/01 05:45:25;;;;;;;0.52;0.32;;;11.10;52.80;;;;;;5061428;28;20076;-76
2023/03/01 05:47:51;;;;;;;3.28;0.65;;;11.10;52.60;;;;;;5060826;28;20029;-76
2023/03/01 05:50:20;;;;;;;1.95;0.90;;;11.10;53.20;;;;;;5060219;28;20055;-77
2023/03/01 05:52:56;;;;;;;1.02;0.60;;;11.10;52.40;;;;;;5061565;28;20036;-76
2023/03/01 05:55:22;;;;;;;1.75;0.60;;;11.20;52.40;;;;;;5060852;28;20056;-75
2023/03/01 05:57:49;;;;;;;0.98;0.40;;;11.20;52.40;;;;;;5060643;28;20063;-76
2023/03/01 06:00:19;;;;;;;1.85;0.65;;;11.20;52.30;;;;;;5058114;28;20033;-76
2023/03/01 06:02:45;;;;;;;1.00;0.35;;;11.10;52.20;;;;;;5059000;28;20415;-76
2023/03/01 06:05:13;;;;;;;1.10;0.60;;;11.10;52.10;;;;;;5041270;28;20124;-76
2023/03/01 06:07:39;;;;;;;1.88;0.75;;;11.10;52.10;;;;;;5060976;28;20029;-75
2023/03/01 06:10:07;;;;;;;1.45;0.45;;;11.10;52.00;;;;;;5060358;28;20040;-76
2023/03/01 06:12:34;;;;;;;1.60;0.60;;;11.10;51.90;;;;;;5061073;28;20830;-75
2023/03/01 06:15:01;;;;;;;1.92;0.40;;;11.10;51.70;;;;;;5057451;28;20073;-76
2023/03/01 06:17:30;;;;;;;1.30;0.60;;;11.10;51.80;;;;;;5061034;28;20025;-74
2023/03/01 06:19:56;;;;;;;1.60;0.70;;;11.10;51.80;;;;;;5060565;28;20071;-73
2023/03/01 06:22:22;;;;;;;3.00;0.77;;;11.10;51.80;;;;;;5060227;28;20738;-74
2023/03/01 06:24:48;;;;;;;1.88;0.82;;;11.10;51.70;;;;;;5022867;28;20036;-76
2023/03/01 06:27:14;;;;;;;2.38;0.63;;;11.10;51.50;;;;;;5060438;28;20062;-76
2023/03/01 06:29:40;;;;;;;3.95;0.75;;;11.10;51.30;;;;;;5056981;28;20048;-77
2023/03/01 06:32:07;;;;;;;3.08;0.63;;;11.20;51.50;;;;;;5041268;28;20056;-76
2023/03/01 06:34:33;;;;;;;1.58;0.60;;;11.20;51.50;;;;;;5060085;28;20468;-74
2023/03/01 06:36:59;;;;;;;1.38;0.90;;;11.30;51.70;;;;;;5042236;28;20475;-76
2023/03/01 06:39:27;;;;;;;2.28;0.50;;;11.40;51.50;;;;;;5058668;28;20072;-75
2023/03/01 06:41:53;;;;;;;3.83;0.82;;;11.40;52.00;;;;;;5041007;28;20044;-75
2023/03/01 06:44:19;;;;;;;1.40;0.60;;;11.40;51.30;;;;;;5058025;28;20090;-75
2023/03/01 06:46:45;;;;;;;1.15;0.63;;;11.50;51.10;;;;;;5059584;28;20028;-76
2023/03/01 06:49:11;;;;;;;2.15;0.73;;;11.60;51.20;;;;;;5040807;28;20124;-75
2023/03/01 06:51:37;;;;;;;2.05;0.50;;;11.60;51.20;;;;;;5060150;28;20048;-75
2023/03/01 06:54:07;;;;;;;1.83;0.70;;;11.60;51.20;;;;;;5041376;28;20048;-75
2023/03/01 06:56:33;;;;;;;3.20;0.75;;;11.70;51.20;;;;;;5041281;28;20039;-76
2023/03/01 06:58:59;;;;;;;1.42;0.75;;;11.70;51.20;;;;;;5059284;28;20491;-77
2023/03/01 07:01:25;;;;;;;1.30;0.80;;;11.70;51.30;;;;;;5064260;28;20068;-78
2023/03/01 07:03:51;;;;;;;3.95;1.00;;;11.80;51.40;;;;;;5042913;28;20043;-79
2023/03/01 07:06:17;;;;;;;2.08;1.27;;;11.90;51.40;;;;;;5060082;28;20521;-78
2023/03/01 07:08:43;;;;;;;3.95;1.17;;;11.90;51.40;;;;;;5071006;28;20120;-77
2023/03/01 07:11:09;;;;;;;1.65;0.90;;;12.10;51.70;;;;;;5066070;28;20041;-77
2023/03/01 07:13:35;;;;;;;2.65;0.90;;;12.20;51.50;;;;;;5059481;28;20052;-76
2023/03/01 07:16:01;;;;;;;2.13;1.05;;;12.20;51.20;;;;;;5049011;28;20029;-76
2023/03/01 07:18:27;;;;;;;2.85;0.90;;;12.40;51.10;;;;;;5061413;28;20463;-77
2023/03/01 07:20:53;;;;;;;2.10;0.82;;;12.50;51.20;;;;;;5061329;28;20086;-76
2023/03/01 07:23:19;;;;;;;1.98;1.15;;;12.60;51.40;;;;;;5061976;28;20568;-76
2023/03/01 07:25:54;;;;;;;1.90;0.90;;;12.60;51.40;;;;;;5062312;28;20033;-76
2023/03/01 07:28:22;;;;;;;2.40;0.85;;;12.60;51.50;;;;;;5063126;28;20561;-76
2023/03/01 07:30:48;;;;;;;1.90;0.73;;;12.60;51.50;;;;;;5051216;28;20449;-75
2023/03/01 07:33:14;;;;;;;1.95;0.70;;;12.60;51.60;;;;;;5053354;28;20041;-74
2023/03/01 07:35:40;;;;;;;1.42;0.60;;;12.60;51.70;;;;;;5065056;28;20090;-76
2023/03/01 07:38:06;;;;;;;2.25;0.90;;;12.60;51.60;;;;;;5065014;28;20457;-75
2023/03/01 07:40:32;;;;;;;4.10;0.70;;;12.60;51.60;;;;;;5059762;28;20029;-77
2023/03/01 07:42:58;;;;;;;3.17;0.90;;;12.60;51.70;;;;;;5040474;28;20495;-77
2023/03/01 07:45:28;;;;;;;1.52;0.88;;;12.70;51.60;;;;;;5042465;28;20044;-77
2023/03/01 07:47:55;;;;;;;1.30;0.73;;;13.00;51.40;;;;;;5039236;28;20040;-73
2023/03/01 07:50:22;;;;;;;1.42;0.60;;;13.00;51.00;;;;;;5060540;28;20032;-76
2023/03/01 07:52:49;;;;;;;1.98;0.80;;;13.00;50.80;;;;;;5062224;28;20495;-77
2023/03/01 07:55:16;;;;;;;1.85;1.00;;;13.20;50.60;;;;;;5059408;28;20029;-76
2023/03/01 07:57:42;;;;;;;1.42;0.70;;;13.30;50.50;;;;;;5063484;28;20037;-75
2023/03/01 08:00:11;;;;;;;2.63;0.88;;;13.40;50.30;;;;;;5065434;28;20043;-75
2023/03/01 08:02:41;;;;;;;1.88;0.73;;;13.40;50.20;;;;;;5063187;28;20499;-76
2023/03/01 08:05:09;;;;;;;0.52;0.50;;;13.40;50.30;;;;;;5062053;28;20319;-76
2023/03/01 08:07:35;;;;;;;2.22;0.80;;;13.40;50.40;;;;;;5062925;28;20039;-76
2023/03/01 08:10:02;;;;;;;1.33;0.80;;;13.40;50.50;;;;;;5061288;28;20400;-77
2023/03/01 08:12:28;;;;;;;2.50;0.70;;;13.40;50.30;;;;;;5062737;28;20028;-77
2023/03/01 08:14:54;;;;;;;1.80;0.70;;;13.40;50.60;;;;;;5063414;28;20102;-76
2023/03/01 08:17:20;;;;;;;2.65;0.82;;;13.40;50.80;;;;;;5062832;28;20039;-76
2023/03/01 08:19:46;;;;;;;0.73;0.47;;;13.50;50.90;;;;;;5064312;28;20135;-77
2023/03/01 08:22:12;;;;;;;1.05;0.80;;;13.50;51.40;;;;;;5062688;28;20037;-74
2023/03/01 08:24:38;;;;;;;0.93;0.57;;;13.50;51.50;;;;;;5060955;28;20040;-76
2023/03/01 08:27:04;;;;;;;3.00;0.80;;;13.50;51.60;;;;;;5062220;28;20036;-76
2023/03/01 08:29:33;;;;;;;2.28;0.98;;;13.50;51.50;;;;;;5062390;28;20121;-77
2023/03/01 08:31:59;;;;;;;1.73;0.93;;;13.50;51.50;;;;;;5048150;28;20444;-77
2023/03/01 08:34:26;;;;;;;1.48;0.77;;;13.50;51.40;;;;;;5061351;28;20041;-76
2023/03/01 08:36:52;;;;;;;1.30;0.73;;;13.50;51.60;;;;;;5060726;28;20465;-77
2023/03/01 08:39:20;;;;;;;1.08;0.80;;;13.50;51.80;;;;;;5061768;28;20515;-76
2023/03/01 08:41:47;;;;;;;1.73;0.50;;;13.50;52.10;;;;;;5062523;28;20037;-75
2023/03/01 08:44:16;;;;;;;1.67;0.63;;;13.50;52.20;;;;;;5064141;28;20060;-75
2023/03/01 08:46:43;;;;;;;1.17;0.70;;;13.50;52.30;;;;;;5042905;28;20412;-75
2023/03/01 08:49:14;;;;;;;1.23;0.70;;;13.50;52.50;;;;;;5059685;28;20033;-75
2023/03/01 08:51:41;;;;;;;2.65;0.80;;;13.40;52.50;;;;;;5060943;28;20407;-76
2023/03/01 08:54:12;;;;;;;1.27;0.73;;;13.40;52.60;;;;;;5059428;28;20436;-76
2023/03/01 08:56:38;;;;;;;1.85;0.85;;;13.40;52.60;;;;;;5060025;28;20033;-76
2023/03/01 08:59:04;;;;;;;4.10;1.00;;;13.40;52.60;;;;;;5064458;28;20113;-77
2023/03/01 09:01:30;;;;;;;2.67;0.90;;;13.40;52.30;;;;;;5042612;28;20056;-78
2023/03/01 09:03:56;;;;;;;2.58;0.90;;;13.40;50.70;;;;;;5044215;28;20048;-77
2023/03/01 09:06:22;;;;;;;4.20;1.75;;;13.40;47.80;;;;;;5044382;28;20044;-77
2023/03/01 09:08:49;;;;;;;2.28;1.17;;;13.30;46.10;;;;;;5063141;28;20037;-78
2023/03/01 09:11:19;;;;;;;2.72;1.13;;;13.20;45.40;;;;;;5062161;28;20419;-76
2023/03/01 09:13:46;;;;;;;2.47;1.20;;;13.10;45.00;;;;;;5042459;28;20040;-77
2023/03/01 09:16:14;;;;;;;2.17;1.30;;;13.00;45.00;;;;;;5061336;28;20032;-78
2023/03/01 09:18:40;;;;;;;2.95;1.10;;;12.90;44.90;;;;;;5042688;28;20024;-77
2023/03/01 09:21:10;;;;;;;2.85;1.10;;;12.90;44.80;;;;;;5059073;28;20033;-76
2023/03/01 09:23:41;;;;;;;2.78;1.08;;;12.80;44.30;;;;;;5059653;28;20487;-78
2023/03/01 09:26:16;;;;;;;3.60;1.38;;;12.80;44.00;;;;;;5063167;28;20537;-78
2023/03/01 09:28:44;;;;;;;3.28;1.00;;;12.60;43.50;;;;;;5059198;28;20455;-77
2023/03/01 09:31:12;;;;;;;3.88;1.38;;;12.60;43.80;;;;;;5042852;28;20178;-78
2023/03/01 09:33:39;;;;;;;3.22;1.52;;;12.50;43.60;;;;;;5059296;28;20119;-77
2023/03/01 09:36:08;;;;;;;2.08;1.00;;;12.40;43.70;;;;;;5046703;28;20507;-78
2023/03/01 09:38:34;;;;;;;3.75;0.88;;;12.40;43.50;;;;;;5060736;28;20044;-76
2023/03/01 09:41:01;;;;;;;3.38;1.50;;;12.30;43.90;;;;;;5061197;28;20032;-78
2023/03/01 09:43:53;;;;;;;2.85;1.90;;;12.30;43.90;;;;;;5059068;28;20534;-77
2023/03/01 09:46:22;;;;;;;4.38;2.10;;;12.20;43.60;;;;;;5060490;28;20036;-78
2023/03/01 09:49:03;;;;;;;2.20;1.30;;;12.10;44.40;;;;;;5058929;28;20127;-76
2023/03/01 09:51:34;;;;;;;3.05;1.42;;;12.10;44.90;;;;;;5062009;28;20041;-78
2023/03/01 09:54:05;;;;;;;3.70;1.30;;;12.20;44.50;;;;;;5058497;28;20086;-78
2023/03/01 09:56:42;;;;;;;5.57;1.45;;;12.10;44.00;;;;;;5042611;28;20029;-78
2023/03/01 09:59:17;;;;;;;2.42;1.30;;;12.10;44.00;;;;;;5060725;28;20415;-78
2023/03/01 10:01:53;;;;;;;2.17;0.90;;;12.00;44.20;;;;;;5060456;28;20036;-76
2023/03/01 10:04:37;;;;;;;2.95;1.15;;;12.10;44.20;;;;;;5041579;28;20128;-78
2023/03/01 10:07:31;;;;;;;2.92;1.00;;;12.00;44.10;;;;;;5042250;28;20546;-76
2023/03/01 10:09:58;;;;;;;2.22;0.93;;;12.00;44.20;;;;;;5058320;28;20534;-76
2023/03/01 10:12:30;;;;;;;2.03;1.10;;;12.00;44.00;;;;;;5058128;28;20041;-75
2023/03/01 10:15:19;;;;;;;2.25;1.00;;;12.00;43.80;;;;;;5058827;28;20037;-77
2023/03/01 10:17:48;;;;;;;2.85;1.08;;;11.90;43.70;;;;;;5060307;28;20498;-76
2023/03/01 10:20:22;;;;;;;2.50;1.08;;;11.90;44.40;;;;;;5042209;28;20050;-76
2023/03/01 10:22:52;;;;;;;1.90;1.00;;;11.90;46.00;;;;;;5060932;28;20048;-79
2023/03/01 10:25:42;;;;;;;2.33;1.08;;;12.00;47.40;;;;;;5057930;28;20423;-78
2023/03/01 10:28:30;;;;;;;2.53;0.82;;;12.10;48.00;;;;;;5060527;28;20059;-79
2023/03/01 10:30:58;;;;;;;1.13;1.00;;;12.20;48.70;;;;;;5060744;28;20041;-78
2023/03/01 10:33:29;;;;;;;1.98;0.93;;;12.20;49.00;;;;;;5042604;28;20422;-79
2023/03/01 10:35:55;;;;;;;2.10;0.95;;;12.30;49.40;;;;;;5059459;28;20052;-78
2023/03/01 10:38:21;;;;;;;3.05;1.20;;;12.30;49.70;;;;;;5059214;28;20402;-78
2023/03/01 10:40:54;;;;;;;1.30;0.60;;;12.30;49.60;;;;;;5060312;28;20028;-77
2023/03/01 10:43:21;;;;;;;1.85;1.10;;;12.40;49.90;;;;;;5044275;28;20054;-77
2023/03/01 10:45:47;;;;;;;1.50;1.08;;;12.40;50.00;;;;;;5061004;28;20046;-78
2023/03/01 10:48:24;;;;;;;2.58;0.80;;;12.40;50.10;;;;;;5058283;28;20033;-76
2023/03/01 10:51:07;;;;;;;2.85;1.17;;;12.50;50.20;;;;;;5056842;28;20143;-78
2023/03/01 10:53:47;;;;;;;1.83;0.93;;;12.50;50.20;;;;;;5059601;28;20131;-79
2023/03/01 10:56:15;;;;;;;1.25;0.90;;;12.60;50.30;;;;;;5041310;28;20438;-76
2023/03/01 10:59:01;;;;;;;3.33;1.02;;;12.60;50.40;;;;;;5059093;28;20037;-85
2023/03/01 11:01:34;;;;;;;1.10;0.70;;;12.60;50.60;;;;;;5060167;28;20059;-90
2023/03/01 11:04:12;;;;;;;2.47;0.90;;;12.60;50.60;;;;;;5034153;28;20171;-89
2023/03/01 11:06:39;;;;;;;1.30;0.90;;;12.60;50.60;;;;;;5058221;28;20455;-80
2023/03/01 11:09:27;;;;;;;2.55;0.80;;;12.60;50.50;;;;;;5059987;28;20033;-84
2023/03/01 11:11:59;;;;;;;1.35;0.73;;;12.60;50.60;;;;;;5039964;28;20123;-86
2023/03/01 11:14:36;;;;;;;0.85;0.70;;;12.60;50.60;;;;;;5058868;28;20399;-78
2023/03/01 11:17:12;;;;;;;3.60;0.85;;;12.60;50.60;;;;;;5060582;28;20528;-76
2023/03/01 11:19:38;;;;;;;3.20;0.77;;;12.60;50.40;;;;;;5040490;28;20041;-79
2023/03/01 11:22:12;;;;;;;1.75;0.82;;;12.60;50.60;;;;;;5028591;28;20047;-85
2023/03/01 11:24:51;;;;;;;1.95;0.93;;;12.70;50.70;;;;;;5056074;28;20322;-82
2023/03/01 11:27:28;;;;;;;1.52;0.77;;;12.60;50.60;;;;;;5057789;28;20086;-79
2023/03/01 11:30:09;;;;;;;1.40;0.70;;;12.70;50.60;;;;;;5058178;28;20125;-79
2023/03/01 11:32:42;;;;;;;1.70;0.80;;;12.70;50.60;;;;;;5038012;28;20045;-80
2023/03/01 11:35:27;;;;;;;1.63;0.90;;;12.70;50.50;;;;;;5040790;28;20032;-80
2023/03/01 11:37:59;;;;;;;2.47;0.80;;;12.70;50.50;;;;;;5045897;28;20409;-80
2023/03/01 11:40:37;;;;;;;1.67;0.80;;;12.70;50.40;;;;;;5057160;28;20033;-89
2023/03/01 11:43:40;;;;;;;1.83;0.73;;;12.70;50.40;;;;;;5058503;28;20508;-79
2023/03/01 11:46:25;;;;;;;1.58;0.80;;;12.70;50.40;;;;;;5040937;28;20101;-84
2023/03/01 11:49:25;;;;;;;1.77;0.77;;;12.70;50.40;;;;;;5059830;28;20028;-83
2023/03/01 11:52:20;;;;;;;1.17;0.65;;;12.70;50.40;;;;;;5060051;28;20054;-82
2023/03/01 11:55:00;;;;;;;2.92;0.90;;;12.70;50.60;;;;;;5056714;28;20029;-83
2023/03/01 11:57:36;;;;;;;1.30;0.60;;;12.70;50.50;;;;;;5057439;28;20033;-83
2023/03/01 12:00:38;;;;;;;1.05;0.70;;;12.70;50.40;;;;;;5042098;28;20118;-81
2023/03/01 12:03:07;;;;;;;1.80;0.82;;;12.70;50.40;;;;;;5059113;28;20068;-88
2023/03/01 12:05:51;;;;;;;1.58;0.70;;;12.70;50.60;;;;;;5040611;28;20036;-87
2023/03/01 12:08:23;;;;;;;1.83;0.68;;;12.70;50.50;;;;;;5059275;28;20521;-83
2023/03/01 12:11:11;;;;;;;1.02;0.60;;;12.70;50.60;;;;;;5057316;28;20507;-83
2023/03/01 12:14:21;;;;;;;1.33;0.70;;;12.70;50.70;;;;;;5039664;28;20503;-81
2023/03/01 12:17:24;;;;;;;1.60;0.80;;;12.70;50.70;;;;;;4996578;28;20045;-86
2023/03/01 12:19:58;;;;;;;0.85;0.40;;;12.70;50.70;;;;;;5056937;28;20047;-84
2023/03/01 12:22:31;;;;;;;1.53;0.60;;;12.70;50.60;;;;;;5059346;28;20068;-82
2023/03/01 12:25:15;;;;;;;1.27;0.73;;;12.70;50.70;;;;;;5056285;28;20065;-77
2023/03/01 12:28:12;;;;;;;1.98;0.80;;;12.70;50.80;;;;;;5040917;28;20441;-79
2023/03/01 12:30:47;;;;;;;0.85;0.50;;;12.60;50.50;;;;;;5060989;28;20048;-80
2023/03/01 12:33:26;;;;;;;1.63;0.70;;;12.60;50.60;;;;;;5063555;28;20579;-78
2023/03/01 12:36:30;;;;;;;1.98;0.80;;;12.60;50.70;;;;;;5065936;28;20036;-81
2023/03/01 12:39:34;;;;;;;2.20;0.77;;;12.60;50.70;;;;;;5068577;28;20041;-79
2023/03/01 12:42:37;;;;;;;0.65;0.50;;;12.60;50.50;;;;;;4985017;28;20589;-82
2023/03/01 12:45:12;;;;;;;1.80;0.40;;;12.60;50.20;;;;;;4972506;28;20045;-80
2023/03/01 12:47:55;;;;;;;0.80;0.60;;;12.60;50.20;;;;;;4972966;28;20691;-80
2023/03/01 12:50:32;;;;;;;1.80;0.65;;;12.60;50.30;;;;;;4969865;28;20043;-81
2023/03/01 12:52:58;;;;;;;1.33;0.63;;;12.60;50.30;;;;;;4988338;28;20030;-79
2023/03/01 12:55:31;;;;;;;2.00;0.63;;;12.60;50.50;;;;;;4973612;28;20524;-77
2023/03/01 12:58:05;;;;;;;1.58;0.68;;;12.60;50.50;;;;;;4967274;28;20030;-76
2023/03/01 13:00:35;;;;;;;0.93;0.50;;;12.60;50.40;;;;;;4979457;28;20686;-76
2023/03/01 13:03:13;;;;;;;1.20;0.50;;;12.60;50.50;;;;;;4979812;28;20034;-76
2023/03/01 13:06:12;;;;;;;1.52;0.60;;;12.60;50.80;;;;;;4962671;28;20038;-77
2023/03/01 13:08:44;;;;;;;0.52;0.32;;;12.60;51.00;;;;;;4891929;29;20173;-75
2023/03/01 13:11:21;;;;;;;0.70;0.60;;;12.60;51.30;;;;;;4903782;29;20075;-76